createdAt,value
2022-12-23T00:03:51.234Z,27.57
2022-12-23T00:09:13.872Z,26.70
2022-12-23T00:14:53.826Z,28.30
2022-12-23T00:20:18.085Z,25.63
2022-12-23T00:25:42.182Z,25.40
2022-12-23T00:31:18.690Z,29.53
2022-12-23T00:36:43.465Z,31.40
2022-12-23T00:42:23.173Z,32.90
2022-12-23T00:48:03.443Z,33.20
2022-12-23T00:53:26.408Z,29.80
2022-12-23T00:58:48.589Z,31.33
2022-12-23T01:04:28.504Z,30.07
2022-12-23T01:09:50.783Z,23.43
2022-12-23T01:15:13.600Z,27.10
2022-12-23T01:20:35.974Z,22.60
2022-12-23T01:26:05.142Z,23.53
2022-12-23T01:31:29.708Z,21.00
2022-12-23T01:36:52.003Z,22.60
2022-12-23T01:42:38.413Z,20.53
2022-12-23T01:48:22.740Z,21.05
2022-12-23T01:53:52.401Z,21.23
2022-12-23T01:59:39.072Z,20.30
2022-12-23T02:05:03.059Z,21.35
2022-12-23T02:10:26.226Z,19.55
2022-12-23T02:16:20.498Z,19.52
2022-12-23T02:21:59.151Z,20.10
2022-12-23T02:27:32.035Z,20.82
2022-12-23T02:33:23.949Z,18.48
2022-12-23T02:38:54.569Z,20.48
2022-12-23T02:44:30.751Z,18.23
2022-12-23T02:49:57.437Z,17.77
2022-12-23T02:55:30.688Z,18.57
2022-12-23T03:00:55.986Z,23.77
2022-12-23T03:06:30.943Z,17.60
2022-12-23T03:12:28.409Z,19.73
2022-12-23T03:18:13.566Z,16.90
2022-12-23T03:23:55.832Z,18.02
2022-12-23T03:29:33.678Z,20.88
2022-12-23T03:35:00.159Z,17.05
2022-12-23T03:40:30.831Z,20.62
2022-12-23T03:46:06.259Z,16.75
2022-12-23T03:51:39.817Z,21.80
2022-12-23T03:57:06.770Z,21.12
2022-12-23T04:02:53.633Z,23.20
2022-12-23T04:08:30.108Z,16.55
2022-12-23T04:13:53.793Z,18.52
2022-12-23T04:19:16.190Z,21.75
2022-12-23T04:24:38.388Z,22.62
2022-12-23T04:30:01.073Z,18.02
2022-12-23T04:35:25.251Z,18.67
2022-12-23T04:40:47.437Z,18.32
2022-12-23T04:46:10.752Z,23.90
2022-12-23T04:51:33.224Z,18.27
2022-12-23T04:56:55.565Z,21.60
2022-12-23T05:02:17.868Z,20.50
2022-12-23T05:07:40.313Z,24.67
2022-12-23T05:13:02.585Z,24.20
2022-12-23T05:18:26.247Z,27.00
2022-12-23T05:23:48.763Z,26.82
2022-12-23T05:29:11.616Z,31.15
2022-12-23T05:34:33.932Z,30.27
2022-12-23T05:39:56.137Z,29.98
2022-12-23T05:45:18.676Z,32.17
2022-12-23T05:50:40.903Z,33.60
2022-12-23T05:56:03.250Z,31.80
2022-12-23T06:01:25.474Z,37.90
2022-12-23T06:06:47.780Z,35.30
2022-12-23T06:12:10.057Z,31.60
2022-12-23T06:17:32.507Z,37.20
2022-12-23T06:22:55.838Z,38.13
2022-12-23T06:28:18.562Z,41.63
2022-12-23T06:33:40.872Z,43.42
2022-12-23T06:39:03.791Z,45.43
2022-12-23T06:44:26.989Z,44.00
2022-12-23T06:49:49.665Z,45.35
2022-12-23T06:55:12.321Z,44.73
2022-12-23T07:00:35.443Z,49.70
2022-12-23T07:06:00.987Z,54.13
2022-12-23T07:11:23.334Z,57.40
2022-12-23T07:16:45.798Z,57.35
2022-12-23T07:22:09.046Z,49.77
2022-12-23T07:27:37.328Z,54.75
2022-12-23T07:38:39.090Z,62.07
2022-12-23T07:44:02.770Z,61.47
2022-12-23T07:49:25.173Z,56.90
2022-12-23T07:54:47.417Z,57.90
2022-12-23T08:00:14.456Z,60.97
2022-12-23T08:05:36.913Z,55.12
2022-12-23T08:11:01.296Z,53.53
2022-12-23T08:16:25.298Z,53.23
2022-12-23T08:21:48.071Z,48.10
2022-12-23T08:27:11.283Z,47.50
2022-12-23T08:32:34.085Z,47.55
2022-12-23T08:37:56.288Z,44.73
2022-12-23T08:43:19.410Z,45.57
2022-12-23T08:48:48.636Z,43.77
2022-12-23T08:54:07.828Z,52.62
2022-12-23T08:59:33.968Z,46.37
2022-12-23T09:04:56.200Z,47.27
2022-12-23T09:10:18.988Z,56.48
2022-12-23T09:15:41.225Z,55.90
2022-12-23T09:21:05.810Z,53.35
2022-12-23T09:26:32.728Z,51.33
2022-12-23T09:31:54.969Z,49.05
2022-12-23T09:37:17.208Z,49.15
2022-12-23T09:43:23.982Z,51.30
2022-12-23T09:48:57.249Z,47.10
2022-12-23T09:54:36.998Z,42.58
2022-12-23T10:00:12.659Z,52.10
2022-12-23T10:05:59.036Z,56.25
2022-12-23T10:11:28.572Z,45.40
2022-12-23T10:16:58.702Z,47.23
2022-12-23T10:27:54.222Z,44.27
2022-12-23T10:33:39.800Z,51.57
2022-12-23T10:39:34.378Z,46.77
2022-12-23T10:45:13.745Z,54.23
2022-12-23T10:51:08.703Z,48.87
2022-12-23T10:56:32.253Z,49.13
2022-12-23T11:01:56.886Z,48.98
2022-12-23T11:13:02.739Z,46.08
2022-12-23T11:18:38.793Z,37.80
2022-12-23T11:24:15.938Z,41.75
2022-12-23T11:34:59.286Z,36.27
2022-12-23T11:40:31.290Z,41.97
2022-12-23T11:45:55.175Z,41.57
2022-12-23T11:51:19.087Z,45.23
2022-12-23T11:56:43.883Z,44.13
2022-12-23T12:02:10.831Z,51.03
2022-12-23T12:07:34.200Z,48.30
2022-12-23T12:13:00.115Z,47.93
2022-12-23T12:18:26.013Z,50.65
2022-12-23T12:24:17.892Z,51.55
2022-12-23T12:30:08.080Z,38.37
2022-12-23T12:35:31.895Z,35.53
2022-12-23T12:41:07.695Z,29.02
2022-12-23T12:47:00.132Z,29.27
2022-12-23T12:52:38.599Z,30.10
2022-12-23T12:58:02.927Z,31.80
2022-12-23T13:03:56.790Z,25.60
2022-12-23T13:09:32.846Z,32.75
2022-12-23T13:15:38.588Z,31.80
2022-12-23T13:21:40.918Z,32.30
2022-12-23T13:27:37.924Z,34.93
2022-12-23T13:33:39.423Z,40.13
2022-12-23T13:39:33.688Z,33.93
2022-12-23T13:44:56.628Z,40.08
2022-12-23T13:50:26.659Z,39.78
2022-12-23T13:56:51.858Z,39.37
2022-12-23T14:02:33.347Z,44.73
2022-12-23T14:07:57.452Z,45.57
2022-12-23T14:13:21.551Z,44.98
2022-12-23T14:19:13.219Z,43.97
2022-12-23T14:25:00.334Z,38.50
2022-12-23T14:30:46.787Z,39.10
2022-12-23T14:36:29.867Z,36.57
2022-12-23T14:42:05.516Z,41.43
2022-12-23T14:47:46.705Z,44.97
2022-12-23T14:53:25.610Z,39.20
2022-12-23T14:59:05.124Z,42.60
2022-12-23T15:04:49.706Z,42.23
2022-12-23T15:10:25.870Z,40.50
2022-12-23T15:15:55.947Z,38.67
2022-12-23T15:21:23.860Z,42.95
2022-12-23T15:27:09.894Z,47.88
2022-12-23T15:32:16.138Z,41.28
2022-12-23T15:37:47.243Z,42.60
2022-12-23T15:43:10.739Z,46.05
2022-12-23T15:48:46.885Z,43.03
2022-12-23T15:54:11.506Z,42.67
2022-12-23T15:59:41.191Z,45.20
2022-12-23T16:05:08.668Z,44.80
2022-12-23T16:10:36.481Z,43.97
2022-12-23T16:15:59.385Z,48.40
2022-12-23T16:21:24.517Z,45.92
2022-12-23T16:26:48.406Z,41.42
2022-12-23T16:32:16.249Z,42.60
2022-12-23T16:37:38.522Z,47.87
2022-12-23T16:43:00.986Z,44.27
2022-12-23T16:48:33.870Z,44.98
2022-12-23T16:53:56.656Z,48.83
2022-12-23T16:59:21.062Z,46.37
2022-12-23T17:04:43.378Z,44.87
2022-12-23T17:10:06.070Z,46.33
2022-12-23T17:15:35.120Z,48.93
2022-12-23T17:20:58.789Z,37.83
2022-12-23T17:26:21.784Z,48.35
2022-12-23T17:31:45.959Z,49.50
2022-12-23T17:37:08.968Z,50.63
2022-12-23T17:42:39.138Z,59.13
2022-12-23T17:48:02.014Z,57.23
2022-12-23T17:53:26.779Z,59.75
2022-12-23T17:58:49.526Z,61.20
2022-12-23T18:04:13.016Z,53.38
2022-12-23T18:09:35.303Z,57.40
2022-12-23T18:14:57.830Z,55.50
2022-12-23T18:20:23.215Z,61.88
2022-12-23T18:25:45.898Z,53.57
2022-12-23T18:31:10.171Z,57.23
2022-12-23T18:36:39.059Z,54.27
2022-12-23T18:42:01.412Z,56.70
2022-12-23T18:47:24.079Z,60.93
2022-12-23T18:52:46.937Z,60.10
2022-12-23T18:58:10.625Z,54.63
2022-12-23T19:03:39.295Z,55.75
2022-12-23T19:09:02.402Z,59.35
2022-12-23T19:14:25.032Z,59.08
2022-12-23T19:19:47.380Z,55.25
2022-12-23T19:25:11.223Z,55.65
2022-12-23T19:30:35.691Z,54.27
2022-12-23T19:35:59.610Z,57.17
2022-12-23T19:41:22.377Z,60.70
2022-12-23T19:46:45.245Z,69.77
2022-12-23T19:52:08.584Z,58.08
2022-12-23T19:57:30.853Z,55.08
2022-12-23T20:02:58.492Z,50.90
2022-12-23T20:08:18.027Z,46.75
2022-12-23T20:13:40.236Z,47.87
2022-12-23T20:19:02.855Z,48.87
2022-12-23T20:24:26.510Z,49.73
2022-12-23T20:29:48.809Z,52.00
2022-12-23T20:35:11.368Z,50.50
2022-12-23T20:40:33.817Z,50.15
2022-12-23T20:45:56.769Z,56.40
2022-12-23T20:51:31.042Z,50.88
2022-12-23T20:57:01.105Z,53.92
2022-12-23T21:02:25.223Z,48.85
2022-12-23T21:07:47.936Z,53.68
2022-12-23T21:13:10.437Z,55.88
2022-12-23T21:18:32.936Z,52.60
2022-12-23T21:23:56.693Z,60.10
2022-12-23T21:29:20.670Z,60.63
2022-12-23T21:34:42.859Z,52.05
2022-12-23T21:40:05.157Z,45.77
2022-12-23T21:45:28.066Z,44.97
2022-12-23T21:50:51.903Z,51.00
2022-12-23T21:56:21.246Z,45.35
2022-12-23T22:01:44.234Z,41.87
2022-12-23T22:07:06.676Z,40.28
2022-12-23T22:12:29.233Z,38.05
2022-12-23T22:17:51.523Z,58.83
2022-12-23T22:23:13.877Z,41.37
2022-12-23T22:28:37.275Z,40.60
2022-12-23T22:33:59.610Z,40.85
2022-12-23T22:39:24.868Z,39.17
2022-12-23T22:44:47.479Z,41.20
2022-12-23T22:50:09.993Z,42.73
2022-12-23T22:55:33.084Z,41.90
2022-12-23T23:00:55.296Z,41.98
2022-12-23T23:12:09.185Z,43.10
2022-12-23T23:17:33.244Z,38.37
2022-12-23T23:22:55.500Z,41.57
2022-12-23T23:28:18.292Z,38.27
2022-12-23T23:33:40.713Z,36.97
2022-12-23T23:39:03.553Z,38.33
2022-12-23T23:44:26.370Z,40.63
2022-12-23T23:49:49.085Z,36.27
2022-12-23T23:55:11.531Z,37.53
